sensor_id;sensor_type;location;lat;lon;timestamp;pressure;altitude;pressure_sealevel;temperature;humidity
29359;BME280;16347;53.232;6.556;2023-12-22T00:00:35;99641.78;;;7.93;61.64
29359;BME280;16347;53.232;6.556;2023-12-22T00:03:03;99639.25;;;7.92;61.51
29359;BME280;16347;53.232;6.556;2023-12-22T00:05:31;99644.66;;;7.92;60.40
29359;BME280;16347;53.232;6.556;2023-12-22T00:07:59;99606.28;;;7.88;59.39
29359;BME280;16347;53.232;6.556;2023-12-22T00:10:27;99628.94;;;7.87;58.63
29359;BME280;16347;53.232;6.556;2023-12-22T00:12:55;99647.38;;;7.84;58.80
29359;BME280;16347;53.232;6.556;2023-12-22T00:15:24;99707.56;;;7.53;61.35
29359;BME280;16347;53.232;6.556;2023-12-22T00:17:52;99683.69;;;7.33;64.29
29359;BME280;16347;53.232;6.556;2023-12-22T00:20:20;99702.84;;;7.55;64.14
29359;BME280;16347;53.232;6.556;2023-12-22T00:22:48;99687.72;;;7.29;64.16
29359;BME280;16347;53.232;6.556;2023-12-22T00:25:16;99676.53;;;7.07;65.25
29359;BME280;16347;53.232;6.556;2023-12-22T00:27:44;99657.31;;;7.27;65.67
29359;BME280;16347;53.232;6.556;2023-12-22T00:30:12;99666.47;;;7.34;64.91
29359;BME280;16347;53.232;6.556;2023-12-22T00:32:42;99668.13;;;7.27;63.86
29359;BME280;16347;53.232;6.556;2023-12-22T00:35:10;99654.28;;;7.30;62.85
29359;BME280;16347;53.232;6.556;2023-12-22T00:37:38;99701.31;;;7.45;61.68
29359;BME280;16347;53.232;6.556;2023-12-22T00:40:07;99759.72;;;7.30;60.98
29359;BME280;16347;53.232;6.556;2023-12-22T00:42:35;99728.66;;;6.84;60.21
29359;BME280;16347;53.232;6.556;2023-12-22T00:45:05;99687.03;;;6.68;58.42
29359;BME280;16347;53.232;6.556;2023-12-22T00:47:33;99671.44;;;6.96;57.79
29359;BME280;16347;53.232;6.556;2023-12-22T00:50:04;99672.00;;;7.08;58.17
29359;BME280;16347;53.232;6.556;2023-12-22T00:52:33;99684.50;;;7.17;58.25
29359;BME280;16347;53.232;6.556;2023-12-22T00:55:01;99676.56;;;7.15;58.41
29359;BME280;16347;53.232;6.556;2023-12-22T00:57:29;99673.88;;;7.23;57.94
29359;BME280;16347;53.232;6.556;2023-12-22T00:59:57;99682.00;;;7.40;58.17
29359;BME280;16347;53.232;6.556;2023-12-22T01:02:25;99636.88;;;7.32;58.26
29359;BME280;16347;53.232;6.556;2023-12-22T01:04:53;99668.66;;;7.30;57.72
29359;BME280;16347;53.232;6.556;2023-12-22T01:07:22;99697.16;;;7.16;56.98
29359;BME280;16347;53.232;6.556;2023-12-22T01:09:50;99666.47;;;7.42;57.41
29359;BME280;16347;53.232;6.556;2023-12-22T01:12:18;99679.97;;;7.34;57.75
29359;BME280;16347;53.232;6.556;2023-12-22T01:14:46;99677.13;;;7.35;58.35
29359;BME280;16347;53.232;6.556;2023-12-22T01:17:18;99695.03;;;7.52;58.61
29359;BME280;16347;53.232;6.556;2023-12-22T01:19:46;99691.31;;;7.53;59.01
29359;BME280;16347;53.232;6.556;2023-12-22T01:22:13;99713.00;;;7.61;59.53
29359;BME280;16347;53.232;6.556;2023-12-22T01:24:43;99709.59;;;7.51;60.21
29359;BME280;16347;53.232;6.556;2023-12-22T01:27:12;99718.22;;;7.71;60.20
29359;BME280;16347;53.232;6.556;2023-12-22T01:29:40;99710.44;;;7.76;60.22
29359;BME280;16347;53.232;6.556;2023-12-22T01:32:08;99707.75;;;7.68;60.66
29359;BME280;16347;53.232;6.556;2023-12-22T01:34:36;99718.88;;;7.49;61.63
29359;BME280;16347;53.232;6.556;2023-12-22T01:37:04;99722.66;;;7.72;61.16
29359;BME280;16347;53.232;6.556;2023-12-22T01:39:31;99721.28;;;7.68;61.69
29359;BME280;16347;53.232;6.556;2023-12-22T01:42:01;99751.38;;;7.73;62.02
29359;BME280;16347;53.232;6.556;2023-12-22T01:44:28;99721.13;;;7.78;62.11
29359;BME280;16347;53.232;6.556;2023-12-22T01:46:57;99727.53;;;7.77;62.09
29359;BME280;16347;53.232;6.556;2023-12-22T01:49:25;99724.47;;;7.96;61.15
29359;BME280;16347;53.232;6.556;2023-12-22T01:51:54;99764.56;;;7.76;59.96
29359;BME280;16347;53.232;6.556;2023-12-22T01:54:22;99725.13;;;7.49;60.68
29359;BME280;16347;53.232;6.556;2023-12-22T01:56:49;99731.03;;;7.53;61.21
29359;BME280;16347;53.232;6.556;2023-12-22T01:59:19;99727.84;;;7.57;61.23
29359;BME280;16347;53.232;6.556;2023-12-22T02:01:47;99708.06;;;7.57;61.24
29359;BME280;16347;53.232;6.556;2023-12-22T02:04:15;99725.34;;;7.72;61.07
29359;BME280;16347;53.232;6.556;2023-12-22T02:06:43;99717.56;;;7.85;60.94
29359;BME280;16347;53.232;6.556;2023-12-22T02:09:11;99717.53;;;7.69;61.19
29359;BME280;16347;53.232;6.556;2023-12-22T02:11:39;99737.81;;;7.57;61.25
29359;BME280;16347;53.232;6.556;2023-12-22T02:14:07;99744.94;;;7.58;60.57
29359;BME280;16347;53.232;6.556;2023-12-22T02:16:43;99780.22;;;7.40;60.85
29359;BME280;16347;53.232;6.556;2023-12-22T02:19:22;99765.38;;;7.02;65.13
29359;BME280;16347;53.232;6.556;2023-12-22T02:22:02;99779.78;;;7.11;66.45
29359;BME280;16347;53.232;6.556;2023-12-22T02:24:37;99731.50;;;7.24;66.54
29359;BME280;16347;53.232;6.556;2023-12-22T02:27:05;99737.72;;;7.16;66.91
29359;BME280;16347;53.232;6.556;2023-12-22T02:29:36;99736.72;;;7.26;66.37
29359;BME280;16347;53.232;6.556;2023-12-22T02:32:07;99732.69;;;7.30;65.84
29359;BME280;16347;53.232;6.556;2023-12-22T02:34:37;99733.91;;;7.35;65.80
29359;BME280;16347;53.232;6.556;2023-12-22T02:37:14;99728.84;;;7.40;65.68
29359;BME280;16347;53.232;6.556;2023-12-22T02:39:44;99727.84;;;7.41;65.73
29359;BME280;16347;53.232;6.556;2023-12-22T02:42:12;99726.47;;;7.37;66.08
29359;BME280;16347;53.232;6.556;2023-12-22T02:44:41;99728.88;;;7.48;66.35
29359;BME280;16347;53.232;6.556;2023-12-22T02:47:09;99715.69;;;7.45;66.12
29359;BME280;16347;53.232;6.556;2023-12-22T02:49:37;99709.06;;;7.56;66.07
29359;BME280;16347;53.232;6.556;2023-12-22T02:52:05;99726.50;;;7.53;65.68
29359;BME280;16347;53.232;6.556;2023-12-22T02:54:33;99713.47;;;7.57;65.99
29359;BME280;16347;53.232;6.556;2023-12-22T02:57:02;99701.84;;;7.81;64.59
29359;BME280;16347;53.232;6.556;2023-12-22T02:59:30;99746.44;;;7.60;64.58
29359;BME280;16347;53.232;6.556;2023-12-22T03:01:58;99791.34;;;6.95;67.56
29359;BME280;16347;53.232;6.556;2023-12-22T03:04:26;99772.88;;;6.83;67.89
29359;BME280;16347;53.232;6.556;2023-12-22T03:06:54;99757.38;;;6.93;67.38
29359;BME280;16347;53.232;6.556;2023-12-22T03:09:22;99725.00;;;7.01;66.89
29359;BME280;16347;53.232;6.556;2023-12-22T03:11:50;99731.97;;;7.11;66.65
29359;BME280;16347;53.232;6.556;2023-12-22T03:14:22;99727.84;;;6.99;66.56
29359;BME280;16347;53.232;6.556;2023-12-22T03:16:50;99725.09;;;6.83;66.68
29359;BME280;16347;53.232;6.556;2023-12-22T03:19:18;99725.47;;;6.88;66.64
29359;BME280;16347;53.232;6.556;2023-12-22T03:21:46;99732.75;;;6.96;66.65
29359;BME280;16347;53.232;6.556;2023-12-22T03:24:13;99734.06;;;6.92;66.86
29359;BME280;16347;53.232;6.556;2023-12-22T03:26:42;99733.78;;;6.95;66.61
29359;BME280;16347;53.232;6.556;2023-12-22T03:29:10;99736.75;;;6.84;67.10
29359;BME280;16347;53.232;6.556;2023-12-22T03:31:39;99747.50;;;6.76;67.45
29359;BME280;16347;53.232;6.556;2023-12-22T03:34:07;99740.66;;;6.89;67.01
29359;BME280;16347;53.232;6.556;2023-12-22T03:36:35;99744.97;;;7.08;66.72
29359;BME280;16347;53.232;6.556;2023-12-22T03:39:03;99748.81;;;7.05;66.88
29359;BME280;16347;53.232;6.556;2023-12-22T03:41:31;99735.91;;;7.25;66.78
29359;BME280;16347;53.232;6.556;2023-12-22T03:44:00;99745.53;;;7.28;66.68
29359;BME280;16347;53.232;6.556;2023-12-22T03:46:28;99753.06;;;7.08;65.38
29359;BME280;16347;53.232;6.556;2023-12-22T03:48:57;99749.19;;;7.10;64.68
29359;BME280;16347;53.232;6.556;2023-12-22T03:51:25;99760.53;;;7.14;64.55
29359;BME280;16347;53.232;6.556;2023-12-22T03:53:53;99757.16;;;7.20;64.48
29359;BME280;16347;53.232;6.556;2023-12-22T03:56:21;99752.94;;;7.26;64.69
29359;BME280;16347;53.232;6.556;2023-12-22T03:58:49;99744.03;;;7.25;64.52
29359;BME280;16347;53.232;6.556;2023-12-22T04:01:16;99745.53;;;7.28;64.22
29359;BME280;16347;53.232;6.556;2023-12-22T04:03:44;99727.97;;;7.32;64.47
29359;BME280;16347;53.232;6.556;2023-12-22T04:06:14;99745.22;;;7.39;64.14
29359;BME280;16347;53.232;6.556;2023-12-22T04:08:41;99744.75;;;7.59;64.07
29359;BME280;16347;53.232;6.556;2023-12-22T04:11:09;99758.28;;;7.59;64.50
29359;BME280;16347;53.232;6.556;2023-12-22T04:13:37;99759.31;;;7.66;64.52
29359;BME280;16347;53.232;6.556;2023-12-22T04:16:05;99766.78;;;7.89;64.21
29359;BME280;16347;53.232;6.556;2023-12-22T04:18:33;99782.34;;;7.95;64.31
29359;BME280;16347;53.232;6.556;2023-12-22T04:21:01;99760.88;;;7.85;64.76
29359;BME280;16347;53.232;6.556;2023-12-22T04:23:31;99783.19;;;7.87;64.97
29359;BME280;16347;53.232;6.556;2023-12-22T04:25:59;99778.81;;;7.94;64.82
29359;BME280;16347;53.232;6.556;2023-12-22T04:28:28;99778.63;;;7.96;63.75
29359;BME280;16347;53.232;6.556;2023-12-22T04:30:57;99772.72;;;8.00;62.66
29359;BME280;16347;53.232;6.556;2023-12-22T04:33:25;99775.44;;;7.92;60.48
29359;BME280;16347;53.232;6.556;2023-12-22T04:35:53;99772.56;;;8.02;58.85
29359;BME280;16347;53.232;6.556;2023-12-22T04:38:21;99753.06;;;7.90;56.38
29359;BME280;16347;53.232;6.556;2023-12-22T04:40:50;99763.06;;;7.98;55.78
29359;BME280;16347;53.232;6.556;2023-12-22T04:43:18;99776.13;;;8.02;56.38
29359;BME280;16347;53.232;6.556;2023-12-22T04:45:46;99784.22;;;7.94;57.67
29359;BME280;16347;53.232;6.556;2023-12-22T04:48:14;99784.88;;;7.88;56.72
29359;BME280;16347;53.232;6.556;2023-12-22T04:50:42;99779.81;;;8.01;57.61
29359;BME280;16347;53.232;6.556;2023-12-22T04:53:10;99773.41;;;8.02;57.28
29359;BME280;16347;53.232;6.556;2023-12-22T04:55:38;99788.59;;;8.03;56.36
29359;BME280;16347;53.232;6.556;2023-12-22T04:58:08;99785.06;;;8.03;56.15
29359;BME280;16347;53.232;6.556;2023-12-22T05:00:35;99780.00;;;8.08;55.77
29359;BME280;16347;53.232;6.556;2023-12-22T05:03:04;99799.94;;;8.07;55.47
29359;BME280;16347;53.232;6.556;2023-12-22T05:05:32;99785.38;;;8.00;56.11
29359;BME280;16347;53.232;6.556;2023-12-22T05:08:00;99791.81;;;8.07;56.27
29359;BME280;16347;53.232;6.556;2023-12-22T05:10:29;99788.28;;;8.06;56.30
29359;BME280;16347;53.232;6.556;2023-12-22T05:12:57;99808.75;;;8.01;56.31
29359;BME280;16347;53.232;6.556;2023-12-22T05:15:26;99803.88;;;8.12;56.74
29359;BME280;16347;53.232;6.556;2023-12-22T05:17:54;99791.50;;;8.02;56.94
29359;BME280;16347;53.232;6.556;2023-12-22T05:20:22;99810.78;;;8.15;57.47
29359;BME280;16347;53.232;6.556;2023-12-22T05:22:50;99824.00;;;8.18;57.67
29359;BME280;16347;53.232;6.556;2023-12-22T05:25:18;99815.38;;;8.22;58.28
29359;BME280;16347;53.232;6.556;2023-12-22T05:27:46;99845.16;;;8.22;58.06
29359;BME280;16347;53.232;6.556;2023-12-22T05:30:14;99814.19;;;8.33;57.47
29359;BME280;16347;53.232;6.556;2023-12-22T05:32:44;99829.78;;;8.31;58.18
29359;BME280;16347;53.232;6.556;2023-12-22T05:35:12;99815.41;;;8.31;57.57
29359;BME280;16347;53.232;6.556;2023-12-22T05:37:40;99827.25;;;8.38;57.61
29359;BME280;16347;53.232;6.556;2023-12-22T05:40:09;99818.63;;;8.42;57.54
29359;BME280;16347;53.232;6.556;2023-12-22T05:42:38;99815.41;;;8.31;57.58
29359;BME280;16347;53.232;6.556;2023-12-22T05:45:07;99817.78;;;8.42;57.19
29359;BME280;16347;53.232;6.556;2023-12-22T05:47:37;99859.06;;;8.44;57.04
29359;BME280;16347;53.232;6.556;2023-12-22T05:50:08;99837.94;;;8.39;56.87
29359;BME280;16347;53.232;6.556;2023-12-22T05:52:37;99830.47;;;8.41;56.77
29359;BME280;16347;53.232;6.556;2023-12-22T05:55:06;99842.66;;;8.37;56.96
29359;BME280;16347;53.232;6.556;2023-12-22T05:57:35;99823.34;;;8.40;57.82
29359;BME280;16347;53.232;6.556;2023-12-22T06:00:04;99822.34;;;8.41;57.68
29359;BME280;16347;53.232;6.556;2023-12-22T06:02:34;99823.69;;;8.37;57.58
29359;BME280;16347;53.232;6.556;2023-12-22T06:05:02;99826.75;;;8.42;57.03
29359;BME280;16347;53.232;6.556;2023-12-22T06:07:31;99817.59;;;8.43;57.09
29359;BME280;16347;53.232;6.556;2023-12-22T06:10:00;99811.50;;;8.49;57.07
29359;BME280;16347;53.232;6.556;2023-12-22T06:12:27;99847.88;;;8.47;56.47
29359;BME280;16347;53.232;6.556;2023-12-22T06:14:55;99840.97;;;8.52;56.98
29359;BME280;16347;53.232;6.556;2023-12-22T06:17:23;99839.75;;;8.63;56.59
29359;BME280;16347;53.232;6.556;2023-12-22T06:19:51;99839.78;;;8.55;57.43
29359;BME280;16347;53.232;6.556;2023-12-22T06:22:19;99827.75;;;8.57;57.65
29359;BME280;16347;53.232;6.556;2023-12-22T06:24:49;99835.84;;;8.73;57.41
29359;BME280;16347;53.232;6.556;2023-12-22T06:27:17;99823.69;;;8.69;57.82
29359;BME280;16347;53.232;6.556;2023-12-22T06:29:45;99830.44;;;8.57;58.37
29359;BME280;16347;53.232;6.556;2023-12-22T06:32:13;99812.66;;;8.63;58.97
29359;BME280;16347;53.232;6.556;2023-12-22T06:34:41;99820.47;;;8.66;58.15
29359;BME280;16347;53.232;6.556;2023-12-22T06:37:09;99829.59;;;8.65;58.12
29359;BME280;16347;53.232;6.556;2023-12-22T06:39:38;99846.88;;;8.72;57.70
29359;BME280;16347;53.232;6.556;2023-12-22T06:42:07;99850.09;;;8.67;57.28
29359;BME280;16347;53.232;6.556;2023-12-22T06:44:37;99866.50;;;8.50;59.62
29359;BME280;16347;53.232;6.556;2023-12-22T06:47:06;99889.09;;;8.00;60.08
29359;BME280;16347;53.232;6.556;2023-12-22T06:49:34;99875.06;;;7.89;60.28
29359;BME280;16347;53.232;6.556;2023-12-22T06:52:03;99858.63;;;7.90;59.46
29359;BME280;16347;53.232;6.556;2023-12-22T06:54:31;99853.22;;;7.82;59.08
29359;BME280;16347;53.232;6.556;2023-12-22T06:56:59;99860.81;;;7.87;59.41
29359;BME280;16347;53.232;6.556;2023-12-22T06:59:28;99852.06;;;8.01;60.04
29359;BME280;16347;53.232;6.556;2023-12-22T07:01:57;99849.19;;;8.02;60.08
29359;BME280;16347;53.232;6.556;2023-12-22T07:04:41;99848.00;;;8.05;60.66
29359;BME280;16347;53.232;6.556;2023-12-22T07:10:10;99845.78;;;8.00;60.37
29359;BME280;16347;53.232;6.556;2023-12-22T07:12:39;99848.00;;;8.05;59.48
29359;BME280;16347;53.232;6.556;2023-12-22T07:15:10;99860.38;;;8.23;58.41
29359;BME280;16347;53.232;6.556;2023-12-22T07:17:38;99877.31;;;8.25;57.86
29359;BME280;16347;53.232;6.556;2023-12-22T07:20:07;99876.84;;;8.30;57.69
29359;BME280;16347;53.232;6.556;2023-12-22T07:22:36;99889.19;;;8.41;57.97
29359;BME280;16347;53.232;6.556;2023-12-22T07:25:06;99880.91;;;8.50;57.72
29359;BME280;16347;53.232;6.556;2023-12-22T07:27:35;99889.19;;;8.57;58.19
29359;BME280;16347;53.232;6.556;2023-12-22T07:30:03;99890.56;;;8.53;59.88
29359;BME280;16347;53.232;6.556;2023-12-22T07:32:34;99896.31;;;8.42;61.44
29359;BME280;16347;53.232;6.556;2023-12-22T07:35:03;99892.59;;;8.35;61.94
29359;BME280;16347;53.232;6.556;2023-12-22T07:37:31;99914.44;;;8.41;62.41
29359;BME280;16347;53.232;6.556;2023-12-22T07:39:59;99924.44;;;8.49;62.76
29359;BME280;16347;53.232;6.556;2023-12-22T07:42:27;99917.44;;;8.22;63.46
29359;BME280;16347;53.232;6.556;2023-12-22T07:44:58;99903.38;;;8.18;64.17
29359;BME280;16347;53.232;6.556;2023-12-22T07:47:29;99899.47;;;8.21;64.51
29359;BME280;16347;53.232;6.556;2023-12-22T07:50:00;99902.00;;;8.14;64.46
29359;BME280;16347;53.232;6.556;2023-12-22T07:52:30;99905.06;;;8.27;64.19
29359;BME280;16347;53.232;6.556;2023-12-22T07:54:58;99893.56;;;8.25;64.28
29359;BME280;16347;53.232;6.556;2023-12-22T07:57:25;99893.78;;;8.40;64.16
29359;BME280;16347;53.232;6.556;2023-12-22T07:59:54;99885.50;;;8.42;63.78
29359;BME280;16347;53.232;6.556;2023-12-22T08:02:22;99880.06;;;8.42;64.22
29359;BME280;16347;53.232;6.556;2023-12-22T08:04:50;99872.13;;;8.48;63.64
29359;BME280;16347;53.232;6.556;2023-12-22T08:07:19;99883.13;;;8.55;62.43
29359;BME280;16347;53.232;6.556;2023-12-22T08:09:47;99884.97;;;8.46;62.24
29359;BME280;16347;53.232;6.556;2023-12-22T08:12:15;99885.13;;;8.53;61.82
29359;BME280;16347;53.232;6.556;2023-12-22T08:14:43;99884.47;;;8.59;61.35
29359;BME280;16347;53.232;6.556;2023-12-22T08:17:11;99881.78;;;8.59;60.87
29359;BME280;16347;53.232;6.556;2023-12-22T08:19:40;99896.31;;;8.74;60.41
29359;BME280;16347;53.232;6.556;2023-12-22T08:22:13;99908.19;;;8.81;60.50
29359;BME280;16347;53.232;6.556;2023-12-22T08:24:42;99888.53;;;8.79;60.77
29359;BME280;16347;53.232;6.556;2023-12-22T08:27:11;99878.88;;;8.76;60.65
29359;BME280;16347;53.232;6.556;2023-12-22T08:29:39;99871.75;;;8.92;60.72
29359;BME280;16347;53.232;6.556;2023-12-22T08:32:07;99878.03;;;8.92;61.05
29359;BME280;16347;53.232;6.556;2023-12-22T08:34:36;99874.63;;;8.98;61.44
29359;BME280;16347;53.232;6.556;2023-12-22T08:37:04;99874.31;;;8.85;61.89
29359;BME280;16347;53.232;6.556;2023-12-22T08:39:31;99875.50;;;8.74;62.33
29359;BME280;16347;53.232;6.556;2023-12-22T08:42:01;99888.19;;;8.50;63.93
29359;BME280;16347;53.232;6.556;2023-12-22T08:44:28;99886.31;;;8.50;63.93
29359;BME280;16347;53.232;6.556;2023-12-22T08:46:56;99883.63;;;8.50;64.53
29359;BME280;16347;53.232;6.556;2023-12-22T08:49:24;99893.47;;;8.59;64.66
29359;BME280;16347;53.232;6.556;2023-12-22T08:51:52;99896.47;;;8.56;65.75
29359;BME280;16347;53.232;6.556;2023-12-22T08:54:20;99885.13;;;8.37;66.88
29359;BME280;16347;53.232;6.556;2023-12-22T08:56:48;99873.63;;;8.43;67.49
29359;BME280;16347;53.232;6.556;2023-12-22T08:59:17;99857.88;;;8.46;67.72
29359;BME280;16347;53.232;6.556;2023-12-22T09:01:46;99864.50;;;8.36;68.79
29359;BME280;16347;53.232;6.556;2023-12-22T09:04:14;99868.91;;;8.45;68.52
29359;BME280;16347;53.232;6.556;2023-12-22T09:06:43;99862.44;;;8.54;68.77
29359;BME280;16347;53.232;6.556;2023-12-22T09:09:11;99857.38;;;8.51;69.15
29359;BME280;16347;53.232;6.556;2023-12-22T09:11:39;99855.69;;;8.58;68.85
29359;BME280;16347;53.232;6.556;2023-12-22T09:14:07;99863.13;;;8.40;69.41
29359;BME280;16347;53.232;6.556;2023-12-22T09:16:38;99862.97;;;8.41;69.25
29359;BME280;16347;53.232;6.556;2023-12-22T09:19:06;99854.09;;;8.23;69.63
29359;BME280;16347;53.232;6.556;2023-12-22T09:21:34;99862.28;;;8.31;69.79
29359;BME280;16347;53.232;6.556;2023-12-22T09:24:03;99865.31;;;8.36;69.33
29359;BME280;16347;53.232;6.556;2023-12-22T09:26:32;99873.97;;;8.40;69.08
29359;BME280;16347;53.232;6.556;2023-12-22T09:29:00;99878.91;;;8.52;68.76
29359;BME280;16347;53.232;6.556;2023-12-22T09:31:28;99886.50;;;8.33;69.38
29359;BME280;16347;53.232;6.556;2023-12-22T09:33:58;99873.63;;;8.43;68.90
29359;BME280;16347;53.232;6.556;2023-12-22T09:36:26;99883.09;;;8.47;68.36
29359;BME280;16347;53.232;6.556;2023-12-22T09:38:54;99875.81;;;8.63;67.80
29359;BME280;16347;53.232;6.556;2023-12-22T09:41:22;99865.84;;;8.40;67.92
29359;BME280;16347;53.232;6.556;2023-12-22T09:43:50;99873.44;;;8.36;67.95
29359;BME280;16347;53.232;6.556;2023-12-22T09:46:20;99871.78;;;8.35;67.87
29359;BME280;16347;53.232;6.556;2023-12-22T09:48:49;99881.94;;;8.49;67.81
29359;BME280;16347;53.232;6.556;2023-12-22T09:51:21;99874.97;;;8.63;67.42
29359;BME280;16347;53.232;6.556;2023-12-22T09:53:49;99879.72;;;8.53;67.35
29359;BME280;16347;53.232;6.556;2023-12-22T09:56:18;99856.34;;;8.44;68.01
29359;BME280;16347;53.232;6.556;2023-12-22T09:58:47;99868.56;;;8.48;67.99
29359;BME280;16347;53.232;6.556;2023-12-22T10:01:17;99865.16;;;8.54;68.13
29359;BME280;16347;53.232;6.556;2023-12-22T10:03:48;99876.69;;;8.64;67.63
29359;BME280;16347;53.232;6.556;2023-12-22T10:06:16;99868.72;;;8.54;68.19
29359;BME280;16347;53.232;6.556;2023-12-22T10:08:46;99868.88;;;8.61;68.16
29359;BME280;16347;53.232;6.556;2023-12-22T10:11:17;99878.56;;;8.80;67.79
29359;BME280;16347;53.232;6.556;2023-12-22T10:13:48;99878.38;;;8.89;67.32
29359;BME280;16347;53.232;6.556;2023-12-22T10:16:18;99875.97;;;8.94;66.61
29359;BME280;16347;53.232;6.556;2023-12-22T10:18:46;99874.97;;;8.95;66.59
29359;BME280;16347;53.232;6.556;2023-12-22T10:21:15;99868.84;;;9.01;66.42
29359;BME280;16347;53.232;6.556;2023-12-22T10:23:42;99870.84;;;9.07;66.07
29359;BME280;16347;53.232;6.556;2023-12-22T10:26:12;99870.50;;;9.10;66.00
29359;BME280;16347;53.232;6.556;2023-12-22T10:28:40;99876.97;;;9.09;66.31
29359;BME280;16347;53.232;6.556;2023-12-22T10:31:09;99879.78;;;9.24;65.69
29359;BME280;16347;53.232;6.556;2023-12-22T10:33:37;99877.59;;;9.27;65.72
29359;BME280;16347;53.232;6.556;2023-12-22T10:36:07;99869.50;;;9.19;65.56
29359;BME280;16347;53.232;6.556;2023-12-22T10:38:36;99872.88;;;9.21;65.86
29359;BME280;16347;53.232;6.556;2023-12-22T10:41:06;99860.97;;;9.31;65.60
29359;BME280;16347;53.232;6.556;2023-12-22T10:43:38;99860.66;;;9.25;66.23
29359;BME280;16347;53.232;6.556;2023-12-22T10:46:07;99856.75;;;9.20;66.14
29359;BME280;16347;53.232;6.556;2023-12-22T10:48:38;99851.00;;;9.23;66.68
29359;BME280;16347;53.232;6.556;2023-12-22T10:51:09;99854.22;;;9.18;67.08
29359;BME280;16347;53.232;6.556;2023-12-22T10:53:40;99845.44;;;9.16;66.83
29359;BME280;16347;53.232;6.556;2023-12-22T10:56:08;99846.66;;;9.06;67.85
29359;BME280;16347;53.232;6.556;2023-12-22T10:58:37;99845.44;;;9.16;67.99
29359;BME280;16347;53.232;6.556;2023-12-22T11:01:06;99861.16;;;9.21;67.82
29359;BME280;16347;53.232;6.556;2023-12-22T11:03:39;99869.44;;;9.27;67.43
29359;BME280;16347;53.232;6.556;2023-12-22T11:06:10;99861.84;;;9.23;68.09
29359;BME280;16347;53.232;6.556;2023-12-22T11:08:40;99866.22;;;9.32;68.06
29359;BME280;16347;53.232;6.556;2023-12-22T11:11:15;99859.78;;;9.33;67.68
29359;BME280;16347;53.232;6.556;2023-12-22T11:13:45;99860.66;;;9.25;67.99
29359;BME280;16347;53.232;6.556;2023-12-22T11:16:14;99856.00;;;9.42;67.90
29359;BME280;16347;53.232;6.556;2023-12-22T11:18:43;99854.53;;;9.23;68.39
29359;BME280;16347;53.232;6.556;2023-12-22T11:21:12;99862.31;;;9.35;68.40
29359;BME280;16347;53.232;6.556;2023-12-22T11:23:42;99864.53;;;9.31;68.44
29359;BME280;16347;53.232;6.556;2023-12-22T11:26:13;99854.38;;;9.33;68.66
29359;BME280;16347;53.232;6.556;2023-12-22T11:28:42;99858.03;;;9.40;68.40
29359;BME280;16347;53.232;6.556;2023-12-22T11:31:14;99840.47;;;9.28;68.79
29359;BME280;16347;53.232;6.556;2023-12-22T11:33:43;99851.09;;;9.38;68.92
29359;BME280;16347;53.232;6.556;2023-12-22T11:36:29;99853.31;;;9.42;68.68
29359;BME280;16347;53.232;6.556;2023-12-22T11:38:59;99847.16;;;9.48;68.82
29359;BME280;16347;53.232;6.556;2023-12-22T11:41:30;99845.25;;;9.18;69.42
29359;BME280;16347;53.232;6.556;2023-12-22T11:44:01;99836.03;;;9.35;69.33
29359;BME280;16347;53.232;6.556;2023-12-22T11:46:32;99838.75;;;9.35;69.18
29359;BME280;16347;53.232;6.556;2023-12-22T11:49:01;99841.94;;;9.47;68.84
29359;BME280;16347;53.232;6.556;2023-12-22T11:51:32;99826.53;;;9.31;69.17
29359;BME280;16347;53.232;6.556;2023-12-22T11:54:02;99816.38;;;9.33;69.31
29359;BME280;16347;53.232;6.556;2023-12-22T11:56:30;99816.97;;;9.51;69.15
29359;BME280;16347;53.232;6.556;2023-12-22T11:58:58;99823.72;;;9.63;68.25
29359;BME280;16347;53.232;6.556;2023-12-22T12:01:28;99824.25;;;9.51;68.02
29359;BME280;16347;53.232;6.556;2023-12-22T12:04:02;99807.44;;;9.55;68.30
29359;BME280;16347;53.232;6.556;2023-12-22T12:06:33;99815.31;;;9.42;67.55
29359;BME280;16347;53.232;6.556;2023-12-22T12:09:06;99798.72;;;9.37;67.82
29359;BME280;16347;53.232;6.556;2023-12-22T12:14:29;99799.03;;;9.42;68.36
29359;BME280;16347;53.232;6.556;2023-12-22T12:17:03;99799.34;;;9.47;68.54
29359;BME280;16347;53.232;6.556;2023-12-22T12:19:35;99780.94;;;9.35;68.43
29359;BME280;16347;53.232;6.556;2023-12-22T12:22:04;99775.72;;;9.25;69.01
29359;BME280;16347;53.232;6.556;2023-12-22T12:24:36;99774.84;;;9.33;68.78
29359;BME280;16347;53.232;6.556;2023-12-22T12:27:04;99778.91;;;9.37;69.14
29359;BME280;16347;53.232;6.556;2023-12-22T12:29:33;99774.34;;;9.29;69.27
29359;BME280;16347;53.232;6.556;2023-12-22T12:32:04;99773.81;;;9.34;69.56
29359;BME280;16347;53.232;6.556;2023-12-22T12:34:34;99767.38;;;9.35;69.01
29359;BME280;16347;53.232;6.556;2023-12-22T12:37:04;99761.78;;;9.36;69.26
29359;BME280;16347;53.232;6.556;2023-12-22T12:39:34;99753.22;;;9.47;68.13
29359;BME280;16347;53.232;6.556;2023-12-22T12:42:07;99750.13;;;9.50;68.21
29359;BME280;16347;53.232;6.556;2023-12-22T12:44:35;99748.28;;;9.51;67.69
29359;BME280;16347;53.232;6.556;2023-12-22T12:47:11;99755.41;;;9.52;68.06
29359;BME280;16347;53.232;6.556;2023-12-22T12:49:41;99770.47;;;9.23;68.07
29359;BME280;16347;53.232;6.556;2023-12-22T12:52:12;99768.16;;;9.12;69.48
29359;BME280;16347;53.232;6.556;2023-12-22T12:54:40;99767.47;;;9.10;69.19
29359;BME280;16347;53.232;6.556;2023-12-22T12:57:13;99760.72;;;9.06;69.39
29359;BME280;16347;53.232;6.556;2023-12-22T12:59:45;99761.53;;;9.15;69.39
29359;BME280;16347;53.232;6.556;2023-12-22T13:02:13;99764.13;;;9.00;70.08
29359;BME280;16347;53.232;6.556;2023-12-22T13:04:43;99745.91;;;9.17;69.76
29359;BME280;16347;53.232;6.556;2023-12-22T13:07:11;99746.09;;;9.15;70.08
29359;BME280;16347;53.232;6.556;2023-12-22T13:09:40;99747.81;;;9.08;70.11
29359;BME280;16347;53.232;6.556;2023-12-22T13:12:10;99747.84;;;9.00;70.17
29359;BME280;16347;53.232;6.556;2023-12-22T13:14:38;99756.25;;;9.13;70.32
29359;BME280;16347;53.232;6.556;2023-12-22T13:17:06;99746.38;;;9.28;70.05
29359;BME280;16347;53.232;6.556;2023-12-22T13:19:36;99754.88;;;9.25;69.62
29359;BME280;16347;53.232;6.556;2023-12-22T13:22:06;99761.19;;;9.10;70.35
29359;BME280;16347;53.232;6.556;2023-12-22T13:24:34;99752.03;;;9.19;70.57